createdAt,value
2023-04-27T00:01:49.792Z,8.14
2023-04-27T00:04:16.756Z,8.22
2023-04-27T00:06:43.476Z,8.25
2023-04-27T00:09:09.958Z,8.14
2023-04-27T00:11:36.361Z,8.17
2023-04-27T00:14:03.047Z,8.23
2023-04-27T00:16:29.526Z,8.17
2023-04-27T00:18:55.932Z,8.13
2023-04-27T00:21:22.330Z,8.09
2023-04-27T00:23:48.784Z,8.18
2023-04-27T00:26:15.202Z,8.12
2023-04-27T00:28:45.068Z,8.08
2023-04-27T00:31:11.640Z,8.10
2023-04-27T00:33:38.078Z,8.13
2023-04-27T00:36:04.713Z,8.14
2023-04-27T00:38:31.191Z,8.14
2023-04-27T00:41:06.869Z,8.16
2023-04-27T00:43:41.235Z,8.16
2023-04-27T00:46:08.252Z,8.18
2023-04-27T00:48:35.642Z,8.10
2023-04-27T00:51:02.062Z,8.08
2023-04-27T00:53:28.525Z,8.01
2023-04-27T00:55:56.374Z,7.98
2023-04-27T00:58:23.026Z,8.08
2023-04-27T01:00:49.648Z,8.06
2023-04-27T01:03:16.436Z,8.02
2023-04-27T01:05:43.674Z,8.05
2023-04-27T01:08:10.408Z,7.98
2023-04-27T01:10:41.155Z,7.96
2023-04-27T01:13:10.145Z,7.95
2023-04-27T01:15:37.656Z,7.99
2023-04-27T01:18:04.481Z,7.98
2023-04-27T01:20:31.399Z,8.06
2023-04-27T01:22:58.554Z,8.09
2023-04-27T01:25:25.399Z,8.00
2023-04-27T01:27:51.856Z,8.07
2023-04-27T01:30:18.361Z,8.06
2023-04-27T01:32:44.797Z,8.00
2023-04-27T01:35:11.270Z,7.96
2023-04-27T01:37:37.701Z,7.91
2023-04-27T01:40:06.597Z,8.02
2023-04-27T01:42:33.038Z,7.91
2023-04-27T01:45:00.649Z,7.98
2023-04-27T01:47:27.705Z,7.95
2023-04-27T01:49:54.213Z,7.86
2023-04-27T01:52:20.660Z,7.84
2023-04-27T01:54:47.055Z,7.79
2023-04-27T01:57:14.349Z,7.85
2023-04-27T01:59:40.867Z,7.92
2023-04-27T02:02:07.503Z,7.94
2023-04-27T02:04:36.879Z,7.87
2023-04-27T02:07:03.519Z,7.82
2023-04-27T02:09:29.946Z,7.77
2023-04-27T02:11:56.399Z,7.90
2023-04-27T02:14:22.846Z,7.99
2023-04-27T02:16:49.374Z,7.96
2023-04-27T02:19:16.213Z,7.92
2023-04-27T02:21:43.635Z,7.90
2023-04-27T02:24:10.989Z,7.92
2023-04-27T02:26:37.731Z,7.91
2023-04-27T02:29:04.155Z,7.93
2023-04-27T02:31:31.258Z,7.81
2023-04-27T02:33:57.709Z,7.84
2023-04-27T02:36:24.976Z,7.76
2023-04-27T02:38:54.162Z,7.88
2023-04-27T02:41:20.797Z,7.87
2023-04-27T02:43:47.201Z,7.85
2023-04-27T02:46:14.004Z,7.95
2023-04-27T02:48:40.590Z,7.97
2023-04-27T02:51:07.052Z,7.92
2023-04-27T02:53:33.532Z,7.77
2023-04-27T02:56:00.081Z,7.86
2023-04-27T02:58:26.669Z,7.78
2023-04-27T03:00:56.944Z,7.76
2023-04-27T03:03:24.445Z,7.72
2023-04-27T03:05:51.085Z,7.68
2023-04-27T03:08:17.517Z,7.69
2023-04-27T03:10:43.929Z,7.67
2023-04-27T03:13:10.509Z,7.70
2023-04-27T03:15:36.931Z,7.57
2023-04-27T03:18:03.459Z,7.54
2023-04-27T03:20:29.930Z,7.65
2023-04-27T03:22:56.345Z,7.62
2023-04-27T03:25:22.849Z,7.57
2023-04-27T03:27:49.326Z,7.59
2023-04-27T03:30:15.838Z,7.48
2023-04-27T03:32:42.389Z,7.42
2023-04-27T03:35:09.719Z,7.46
2023-04-27T03:37:36.224Z,7.47
2023-04-27T03:40:02.663Z,7.46
2023-04-27T03:42:29.572Z,7.52
2023-04-27T03:44:56.185Z,7.51
2023-04-27T03:47:22.899Z,7.47
2023-04-27T03:49:49.411Z,7.51
2023-04-27T03:52:15.946Z,7.47
2023-04-27T03:54:42.400Z,7.39
2023-04-27T03:57:09.064Z,7.32
2023-04-27T03:59:35.834Z,7.32
2023-04-27T04:02:05.262Z,7.42
2023-04-27T04:04:32.247Z,7.39
2023-04-27T04:06:58.788Z,7.34
2023-04-27T04:09:25.299Z,7.33
2023-04-27T04:11:52.513Z,7.46
2023-04-27T04:14:19.249Z,7.50
2023-04-27T04:16:46.293Z,7.56
2023-04-27T04:19:13.152Z,7.54
2023-04-27T04:21:40.082Z,7.56
2023-04-27T04:24:08.003Z,7.62
2023-04-27T04:26:35.437Z,7.59
2023-04-27T04:29:01.941Z,7.58
2023-04-27T04:31:29.686Z,7.53
2023-04-27T04:33:56.740Z,7.59
2023-04-27T04:36:23.909Z,7.53
2023-04-27T04:38:54.859Z,7.53
2023-04-27T04:41:21.529Z,7.39
2023-04-27T04:43:49.370Z,7.53
2023-04-27T04:46:17.256Z,7.48
2023-04-27T04:48:43.694Z,7.47
2023-04-27T04:51:11.210Z,7.53
2023-04-27T04:53:38.121Z,7.52
2023-04-27T04:56:12.075Z,7.55
2023-04-27T04:58:39.107Z,7.48
2023-04-27T05:01:06.627Z,7.45
2023-04-27T05:03:33.412Z,7.45
2023-04-27T05:05:59.850Z,7.36
2023-04-27T05:08:26.690Z,7.49
2023-04-27T05:10:53.625Z,7.51
2023-04-27T05:13:20.865Z,7.44
2023-04-27T05:15:47.427Z,7.44
2023-04-27T05:18:13.879Z,7.60
2023-04-27T05:20:40.319Z,7.54
2023-04-27T05:23:06.726Z,7.64
2023-04-27T05:25:33.770Z,7.62
2023-04-27T05:28:00.502Z,7.57
2023-04-27T05:30:27.184Z,7.55
2023-04-27T05:32:53.619Z,7.60
2023-04-27T05:35:20.751Z,7.67
2023-04-27T05:37:47.187Z,7.72
2023-04-27T05:40:15.276Z,7.75
2023-04-27T05:42:41.711Z,7.76
2023-04-27T05:45:08.565Z,7.83
2023-04-27T05:47:35.192Z,7.89
2023-04-27T05:50:01.679Z,7.86
2023-04-27T05:52:30.915Z,7.90
2023-04-27T05:55:01.204Z,7.92
2023-04-27T05:57:27.996Z,8.01
2023-04-27T05:59:54.437Z,8.01
2023-04-27T06:02:21.712Z,8.07
2023-04-27T06:04:48.632Z,8.18
2023-04-27T06:07:16.375Z,8.12
2023-04-27T06:09:42.989Z,8.11
2023-04-27T06:12:09.815Z,8.07
2023-04-27T06:14:37.201Z,8.14
2023-04-27T06:17:04.308Z,8.30
2023-04-27T06:19:31.359Z,8.48
2023-04-27T06:21:57.794Z,8.62
2023-04-27T06:24:24.206Z,8.71
2023-04-27T06:26:51.064Z,8.85
2023-04-27T06:29:17.629Z,8.71
2023-04-27T06:31:44.097Z,8.65
2023-04-27T06:34:10.681Z,8.73
2023-04-27T06:36:37.099Z,8.73
2023-04-27T06:39:03.609Z,8.95
2023-04-27T06:41:30.025Z,8.93
2023-04-27T06:43:58.557Z,8.50
2023-04-27T06:46:26.069Z,8.69
2023-04-27T06:48:52.766Z,8.91
2023-04-27T06:51:19.194Z,9.20
2023-04-27T06:53:45.668Z,9.27
2023-04-27T06:56:12.093Z,9.38
2023-04-27T06:58:38.516Z,9.77
2023-04-27T07:01:05.278Z,9.93
2023-04-27T07:03:34.894Z,10.11
2023-04-27T07:06:01.675Z,10.16
2023-04-27T07:08:28.076Z,9.78
2023-04-27T07:10:56.067Z,9.67
2023-04-27T07:13:22.465Z,9.80
2023-04-27T07:15:53.785Z,9.57
2023-04-27T07:18:20.209Z,9.70
2023-04-27T07:20:46.619Z,10.44
2023-04-27T07:23:13.156Z,10.10
2023-04-27T07:25:40.246Z,10.73
2023-04-27T07:28:06.754Z,10.60
2023-04-27T07:30:36.900Z,10.21
2023-04-27T07:33:03.702Z,9.98
2023-04-27T07:35:30.243Z,10.08
2023-04-27T07:37:56.710Z,10.15
2023-04-27T07:40:24.195Z,10.06
2023-04-27T07:42:51.140Z,10.21
2023-04-27T07:45:17.994Z,10.56
2023-04-27T07:47:44.563Z,11.03
2023-04-27T07:50:11.316Z,11.15
2023-04-27T07:52:37.758Z,11.03
2023-04-27T07:55:04.673Z,11.13
2023-04-27T07:57:31.548Z,10.94
2023-04-27T07:59:58.090Z,10.21
2023-04-27T08:02:26.237Z,10.64
2023-04-27T08:04:53.224Z,10.88
2023-04-27T08:07:19.994Z,10.57
2023-04-27T08:09:50.889Z,10.65
2023-04-27T08:12:17.329Z,10.61
2023-04-27T08:14:43.777Z,10.16
2023-04-27T08:17:10.184Z,9.84
2023-04-27T08:19:37.381Z,9.75
2023-04-27T08:22:03.804Z,9.90
2023-04-27T08:24:30.225Z,9.69
2023-04-27T08:26:56.622Z,10.07
2023-04-27T08:29:27.736Z,9.51
2023-04-27T08:31:58.853Z,9.89
2023-04-27T08:34:25.701Z,9.80
2023-04-27T08:36:52.360Z,9.99
2023-04-27T08:39:18.984Z,10.14
2023-04-27T08:41:46.312Z,10.05
2023-04-27T08:44:12.850Z,10.28
2023-04-27T08:46:39.496Z,10.29
2023-04-27T08:49:07.419Z,10.32
2023-04-27T08:51:34.670Z,10.18
2023-04-27T08:54:01.380Z,9.91
2023-04-27T08:56:29.174Z,9.69
2023-04-27T08:58:57.050Z,9.74
2023-04-27T09:01:25.155Z,9.44
2023-04-27T09:04:00.244Z,9.86
2023-04-27T09:06:31.646Z,9.86
2023-04-27T09:08:59.640Z,9.81
2023-04-27T09:11:34.790Z,10.14
2023-04-27T09:14:03.751Z,9.94
2023-04-27T09:16:31.193Z,10.35
2023-04-27T09:18:58.620Z,10.37
2023-04-27T09:21:26.602Z,10.08
2023-04-27T09:23:53.612Z,10.14
2023-04-27T09:26:27.471Z,10.20
2023-04-27T09:28:58.481Z,10.36
2023-04-27T09:31:32.064Z,10.13
2023-04-27T09:33:58.718Z,10.45
2023-04-27T09:36:25.736Z,10.64
2023-04-27T09:38:52.952Z,10.37
2023-04-27T09:41:19.763Z,10.45
2023-04-27T09:43:47.215Z,10.57
2023-04-27T09:46:14.729Z,10.80
2023-04-27T09:48:41.703Z,10.86
2023-04-27T09:51:08.464Z,11.31
2023-04-27T09:53:44.750Z,11.56
2023-04-27T09:56:26.210Z,11.67
2023-04-27T09:59:33.944Z,11.56
2023-04-27T10:02:10.002Z,11.86
2023-04-27T10:05:09.500Z,12.40
2023-04-27T10:07:38.475Z,12.80
2023-04-27T10:10:05.670Z,12.14
2023-04-27T10:12:38.749Z,12.50
2023-04-27T10:15:17.940Z,12.55
2023-04-27T10:17:50.408Z,12.44
2023-04-27T10:20:17.815Z,12.04
2023-04-27T10:22:46.602Z,11.98
2023-04-27T10:25:25.515Z,12.08
2023-04-27T10:28:01.395Z,11.72
2023-04-27T10:30:36.504Z,12.09
2023-04-27T10:33:08.579Z,12.27
2023-04-27T10:35:40.507Z,12.41
2023-04-27T10:38:11.081Z,12.05
2023-04-27T10:40:38.754Z,12.03
2023-04-27T10:43:16.210Z,12.26
2023-04-27T10:45:43.879Z,12.01
2023-04-27T10:48:14.318Z,12.33
2023-04-27T10:50:41.461Z,12.35
2023-04-27T10:53:08.500Z,12.74
2023-04-27T10:55:35.554Z,12.41
2023-04-27T10:58:02.496Z,12.50
2023-04-27T11:00:44.006Z,12.08
2023-04-27T11:03:22.426Z,12.58
2023-04-27T11:05:58.552Z,13.07
2023-04-27T11:08:24.957Z,13.39
2023-04-27T11:10:52.092Z,13.48
2023-04-27T11:13:23.326Z,13.64
2023-04-27T11:15:51.169Z,13.82
2023-04-27T11:18:19.339Z,13.93
2023-04-27T11:20:49.571Z,13.68
2023-04-27T11:23:36.761Z,13.44
2023-04-27T11:26:17.053Z,12.83
2023-04-27T11:28:45.697Z,12.90
2023-04-27T11:31:12.410Z,12.76
2023-04-27T11:33:41.460Z,12.81
2023-04-27T11:36:18.760Z,13.29
2023-04-27T11:38:45.888Z,13.05
2023-04-27T11:41:12.563Z,12.91
2023-04-27T11:43:43.312Z,13.06
2023-04-27T11:46:11.006Z,13.19
2023-04-27T11:48:38.373Z,13.10
2023-04-27T11:51:05.827Z,13.00
2023-04-27T11:53:36.911Z,12.66
2023-04-27T11:56:10.977Z,13.11
2023-04-27T11:58:38.865Z,13.13
2023-04-27T12:01:06.746Z,12.74
2023-04-27T12:03:33.953Z,13.48
2023-04-27T12:06:16.163Z,14.11
2023-04-27T12:08:47.275Z,13.28
2023-04-27T12:11:13.688Z,13.18
2023-04-27T12:13:40.411Z,12.89
2023-04-27T12:16:06.946Z,13.11
2023-04-27T12:18:33.470Z,13.23
2023-04-27T12:21:03.098Z,12.88
2023-04-27T12:23:29.999Z,12.72
2023-04-27T12:25:56.537Z,12.81
2023-04-27T12:28:23.380Z,12.73
2023-04-27T12:30:49.904Z,12.82
2023-04-27T12:33:16.704Z,13.08
2023-04-27T12:35:43.215Z,13.06
2023-04-27T12:38:09.911Z,12.96
2023-04-27T12:40:36.586Z,13.16
2023-04-27T12:43:02.995Z,13.01
2023-04-27T12:45:29.430Z,12.91
2023-04-27T12:48:03.356Z,13.12
2023-04-27T12:50:32.390Z,12.87
2023-04-27T12:53:00.003Z,12.73
2023-04-27T12:55:33.600Z,12.78
2023-04-27T12:58:01.038Z,12.89
2023-04-27T13:00:27.651Z,13.05
2023-04-27T13:02:54.232Z,12.72
2023-04-27T13:05:22.311Z,12.87
2023-04-27T13:07:48.750Z,13.10
2023-04-27T13:10:15.378Z,13.03
2023-04-27T13:12:41.814Z,13.10
2023-04-27T13:15:09.046Z,13.04
2023-04-27T13:17:35.471Z,12.74
2023-04-27T13:20:01.958Z,13.12
2023-04-27T13:22:28.453Z,13.52
2023-04-27T13:24:54.996Z,14.11
2023-04-27T13:27:22.403Z,14.18
2023-04-27T13:29:51.130Z,14.19
2023-04-27T13:32:17.773Z,13.95
2023-04-27T13:34:44.306Z,14.04
2023-04-27T13:37:10.814Z,14.14
2023-04-27T13:39:37.638Z,14.43
2023-04-27T13:42:04.348Z,14.39
2023-04-27T13:44:31.678Z,14.18
2023-04-27T13:46:58.335Z,14.20
2023-04-27T13:49:24.786Z,14.13
2023-04-27T13:51:51.414Z,13.46
2023-04-27T13:54:17.836Z,13.66
2023-04-27T13:56:44.257Z,13.88
2023-04-27T13:59:10.662Z,14.07
2023-04-27T14:01:38.099Z,14.49
2023-04-27T14:04:04.752Z,14.75
2023-04-27T14:06:32.022Z,14.99
2023-04-27T14:08:58.451Z,15.17
2023-04-27T14:11:24.949Z,15.15
2023-04-27T14:13:51.586Z,14.23
2023-04-27T14:16:18.076Z,13.85
2023-04-27T14:18:44.668Z,14.56
2023-04-27T14:21:11.127Z,14.42
2023-04-27T14:23:37.533Z,13.69
2023-04-27T14:26:05.036Z,13.82
2023-04-27T14:28:31.442Z,13.89
2023-04-27T14:30:57.846Z,13.58
2023-04-27T14:33:24.238Z,13.84
2023-04-27T14:35:50.665Z,13.64
2023-04-27T14:38:17.079Z,13.75
2023-04-27T14:40:44.504Z,13.31
2023-04-27T14:43:11.069Z,13.53
2023-04-27T14:45:50.392Z,13.86
2023-04-27T14:48:19.100Z,13.82
2023-04-27T14:50:45.670Z,13.93
2023-04-27T14:53:12.097Z,13.54
2023-04-27T14:55:38.576Z,13.67
2023-04-27T14:58:05.011Z,13.98
2023-04-27T15:00:31.504Z,14.05
2023-04-27T15:02:58.007Z,14.36
2023-04-27T15:05:25.037Z,14.74
2023-04-27T15:07:51.519Z,14.62
2023-04-27T15:10:18.100Z,14.42
2023-04-27T15:12:44.488Z,14.57
2023-04-27T15:15:12.803Z,14.89
2023-04-27T15:17:39.352Z,14.50
2023-04-27T15:20:06.762Z,14.95
2023-04-27T15:22:33.343Z,14.65
2023-04-27T15:24:59.756Z,14.60
2023-04-27T15:27:26.333Z,14.29
2023-04-27T15:29:55.694Z,14.42
2023-04-27T15:32:24.547Z,14.52
2023-04-27T15:34:51.806Z,14.34
2023-04-27T15:37:18.386Z,14.70
2023-04-27T15:39:44.825Z,14.96
2023-04-27T15:42:11.308Z,14.85
2023-04-27T15:44:37.701Z,14.85
2023-04-27T15:47:04.594Z,15.03
2023-04-27T15:49:31.226Z,14.74
2023-04-27T15:51:57.647Z,14.36
2023-04-27T15:54:24.138Z,14.53
2023-04-27T15:56:50.987Z,14.78
2023-04-27T15:59:18.105Z,14.74
2023-04-27T16:01:44.507Z,14.87
2023-04-27T16:04:11.039Z,14.49
2023-04-27T16:06:37.562Z,14.65
2023-04-27T16:09:04.404Z,14.25
2023-04-27T16:11:31.512Z,14.54
2023-04-27T16:13:58.566Z,14.59
2023-04-27T16:16:25.140Z,14.40
2023-04-27T16:18:51.579Z,14.64
2023-04-27T16:21:18.081Z,14.80
2023-04-27T16:23:44.723Z,14.62
2023-04-27T16:26:11.461Z,14.75
2023-04-27T16:28:38.089Z,14.69
2023-04-27T16:31:04.675Z,14.46
2023-04-27T16:33:31.365Z,14.09
2023-04-27T16:35:57.817Z,14.20
2023-04-27T16:38:24.274Z,14.30
2023-04-27T16:40:52.571Z,14.39
2023-04-27T16:43:19.282Z,14.41
2023-04-27T16:45:45.730Z,14.39
2023-04-27T16:48:12.541Z,13.98
2023-04-27T16:50:39.068Z,14.06
2023-04-27T16:53:09.963Z,14.14
2023-04-27T16:55:36.453Z,14.19
2023-04-27T16:58:03.043Z,14.22
2023-04-27T17:00:29.635Z,14.22
2023-04-27T17:02:56.168Z,14.18
2023-04-27T17:05:22.752Z,14.18
2023-04-27T17:07:49.143Z,14.15
2023-04-27T17:10:16.758Z,14.05
2023-04-27T17:12:43.181Z,13.82
2023-04-27T17:15:10.805Z,13.88
2023-04-27T17:17:37.493Z,13.57
2023-04-27T17:20:06.317Z,13.28
2023-04-27T17:22:33.042Z,13.33
2023-04-27T17:24:59.437Z,13.15
2023-04-27T17:27:26.052Z,13.04
2023-04-27T17:29:54.080Z,13.13
2023-04-27T17:32:20.568Z,13.34
2023-04-27T17:34:47.178Z,13.31
2023-04-27T17:37:14.797Z,13.09
2023-04-27T17:39:41.447Z,13.11
2023-04-27T17:42:12.011Z,12.99
2023-04-27T17:44:39.523Z,12.93
2023-04-27T17:47:05.942Z,12.79
2023-04-27T17:49:32.885Z,12.84
2023-04-27T17:51:59.304Z,12.81
2023-04-27T17:54:28.766Z,12.73
2023-04-27T17:56:56.565Z,12.61
2023-04-27T17:59:23.014Z,12.51
2023-04-27T18:01:49.486Z,12.40
2023-04-27T18:04:16.019Z,12.41
2023-04-27T18:06:42.578Z,12.42
2023-04-27T18:09:09.012Z,12.31
2023-04-27T18:11:36.252Z,12.21
2023-04-27T18:14:03.638Z,12.21
2023-04-27T18:16:30.123Z,12.03
2023-04-27T18:18:56.528Z,11.84
2023-04-27T18:21:22.973Z,11.83
2023-04-27T18:23:49.373Z,11.77
2023-04-27T18:26:16.511Z,11.68
2023-04-27T18:28:42.990Z,11.63
2023-04-27T18:31:16.850Z,11.47
2023-04-27T18:33:44.911Z,11.38
2023-04-27T18:36:11.513Z,11.37
2023-04-27T18:38:38.175Z,11.18
2023-04-27T18:41:04.756Z,11.19
2023-04-27T18:43:31.249Z,11.16
2023-04-27T18:45:57.717Z,11.13
2023-04-27T18:48:24.195Z,10.92
2023-04-27T18:50:50.601Z,10.80
2023-04-27T18:53:17.104Z,10.56
2023-04-27T18:55:43.549Z,10.47
2023-04-27T18:58:10.223Z,10.46
2023-04-27T19:00:38.315Z,10.44
2023-04-27T19:03:05.724Z,10.25
2023-04-27T19:05:32.441Z,10.14
2023-04-27T19:07:59.037Z,10.04
2023-04-27T19:10:25.499Z,10.11
2023-04-27T19:12:51.924Z,9.96
2023-04-27T19:15:18.365Z,9.87
2023-04-27T19:17:45.121Z,9.88
2023-04-27T19:20:13.545Z,9.79
2023-04-27T19:22:40.004Z,9.53
2023-04-27T19:25:06.841Z,9.50
2023-04-27T19:27:33.333Z,9.30
2023-04-27T19:29:59.772Z,9.24
2023-04-27T19:32:29.051Z,9.23
2023-04-27T19:34:56.869Z,9.27
2023-04-27T19:37:24.565Z,9.11
2023-04-27T19:39:51.151Z,9.17
2023-04-27T19:42:17.586Z,9.06
2023-04-27T19:44:43.993Z,9.04
2023-04-27T19:47:10.850Z,8.94
2023-04-27T19:49:37.546Z,8.84
2023-04-27T19:52:05.140Z,8.81
2023-04-27T19:54:31.539Z,8.80
2023-04-27T19:56:57.960Z,8.75
2023-04-27T19:59:24.384Z,8.71
2023-04-27T20:01:50.849Z,8.70
2023-04-27T20:04:18.130Z,8.66
2023-04-27T20:06:45.206Z,8.59
2023-04-27T20:09:11.775Z,8.55
2023-04-27T20:11:38.367Z,8.45
2023-04-27T20:14:04.802Z,8.34
2023-04-27T20:16:31.293Z,8.31
2023-04-27T20:18:57.831Z,8.20
2023-04-27T20:21:24.237Z,8.23
2023-04-27T20:23:50.689Z,8.08
2023-04-27T20:26:17.119Z,8.07
2023-04-27T20:28:43.525Z,8.03
2023-04-27T20:31:09.978Z,7.99
2023-04-27T20:33:36.488Z,7.97
2023-04-27T20:36:14.231Z,7.91
2023-04-27T20:38:44.376Z,7.90
2023-04-27T20:41:12.312Z,7.87
2023-04-27T20:43:41.586Z,7.87
2023-04-27T20:46:08.185Z,7.86
2023-04-27T20:48:34.677Z,7.77
2023-04-27T20:51:01.128Z,7.73
2023-04-27T20:53:27.937Z,7.62
2023-04-27T20:55:54.377Z,7.47
2023-04-27T20:58:20.947Z,7.49
2023-04-27T21:00:47.398Z,7.36
2023-04-27T21:03:14.173Z,7.37
2023-04-27T21:05:41.365Z,7.34
2023-04-27T21:08:07.775Z,7.31
2023-04-27T21:10:35.452Z,7.25
2023-04-27T21:13:04.065Z,7.18
2023-04-27T21:15:30.550Z,7.22
2023-04-27T21:17:57.083Z,7.23
2023-04-27T21:20:23.738Z,7.08
2023-04-27T21:22:50.167Z,6.96
2023-04-27T21:25:16.593Z,7.01
2023-04-27T21:27:43.049Z,6.91
2023-04-27T21:30:10.130Z,6.93
2023-04-27T21:32:36.646Z,6.86
2023-04-27T21:35:03.138Z,6.87
2023-04-27T21:37:29.549Z,6.87
2023-04-27T21:39:55.977Z,6.94
2023-04-27T21:42:22.382Z,6.81
2023-04-27T21:44:48.783Z,6.84
2023-04-27T21:47:15.186Z,6.85
2023-04-27T21:49:41.625Z,6.78
2023-04-27T21:52:08.039Z,6.81
2023-04-27T21:54:34.482Z,6.67
2023-04-27T21:57:00.910Z,6.74
2023-04-27T21:59:27.331Z,6.73
2023-04-27T22:01:53.866Z,6.65
2023-04-27T22:04:20.680Z,6.64
2023-04-27T22:06:48.314Z,6.61
2023-04-27T22:09:14.744Z,6.63
2023-04-27T22:11:41.169Z,6.55
2023-04-27T22:14:07.564Z,6.46
2023-04-27T22:16:34.061Z,6.42
2023-04-27T22:19:00.537Z,6.38
2023-04-27T22:21:28.809Z,6.28
2023-04-27T22:23:55.263Z,6.29
2023-04-27T22:26:21.721Z,6.25
2023-04-27T22:28:48.405Z,6.15
2023-04-27T22:31:14.855Z,6.26
2023-04-27T22:33:41.332Z,6.22
2023-04-27T22:36:08.014Z,6.20
2023-04-27T22:38:34.422Z,6.09
2023-04-27T22:41:00.887Z,6.15
2023-04-27T22:43:27.297Z,6.21
2023-04-27T22:45:53.692Z,6.15
2023-04-27T22:48:20.077Z,6.07
2023-04-27T22:50:46.809Z,6.14
2023-04-27T22:53:13.258Z,6.00
2023-04-27T22:55:39.651Z,6.00
2023-04-27T22:58:06.071Z,6.08
2023-04-27T23:00:32.493Z,6.03
2023-04-27T23:02:59.062Z,6.02
2023-04-27T23:05:25.619Z,6.00
2023-04-27T23:07:52.046Z,5.98
2023-04-27T23:10:18.876Z,6.03
2023-04-27T23:12:45.397Z,5.83
2023-04-27T23:15:12.418Z,5.86
2023-04-27T23:17:39.014Z,5.80
2023-04-27T23:20:11.151Z,5.80
2023-04-27T23:22:43.877Z,5.84
2023-04-27T23:25:10.586Z,5.83
2023-04-27T23:27:37.019Z,5.80
2023-04-27T23:30:04.254Z,5.84
2023-04-27T23:32:30.667Z,5.77
2023-04-27T23:34:57.077Z,5.81
2023-04-27T23:37:24.268Z,5.77
2023-04-27T23:39:50.724Z,5.79
2023-04-27T23:42:17.142Z,5.80
2023-04-27T23:44:43.769Z,5.72
2023-04-27T23:47:10.191Z,5.74
2023-04-27T23:49:36.604Z,5.74
2023-04-27T23:52:03.033Z,5.71
2023-04-27T23:54:31.441Z,5.77
2023-04-27T23:56:57.883Z,5.72
2023-04-27T23:59:24.348Z,5.65
